• Join FlightAware (Why Join?)
  • Login
  • US Flag 
01:15AM EST


 

Airport Tracker/Info


-or-


 

Live Flight TrackerFlight Track Log ✈ DAL1761 ✈ 06-May-2012 ✈ KATL - KPHL

Flight Track Log - Related Links

Times and Time Zones

All times are in EDT time to prevent confusion due to time zone crossing. See the DAL1761 flight status page for this flight to view local times or setup timezone preferences in your user account.

Time Position Orientation Groundspeed Altitude Reporting Facility
EDT Latitude Longitude Course Direction KTS MPH feet Rate Location/Type
01:33PM 33.6333 -84.4833 239° Southwest 189 217 2,400  Level Atlanta TRACON
01:34PM 33.6000 -84.5500 203° Southwest 269 310 4,200 2,340 Climbing Atlanta TRACON
01:35PM 33.5333 -84.5833 159° South 291 335 7,100 2,640 Climbing Atlanta TRACON
01:37PM 33.4572 -84.5492 90° East 316 364 9,900 1,920 Climbing Atlanta Center
01:38PM 33.4575 -84.4472 91° East 293 337 11,300 1,440 Climbing Atlanta Center
01:39PM 33.4558 -84.3203 46° Northeast 350 403 12,800 1,860 Climbing Atlanta Center
01:40PM 33.5311 -84.2283 29° Northeast 376 433 15,100 2,220 Climbing Atlanta Center
01:41PM 33.6336 -84.1611 32° Northeast 383 441 17,300 1,980 Climbing Atlanta Center
01:42PM 33.7336 -84.0861 56° Northeast 413 475 19,100 1,980 Climbing Atlanta Center
01:43PM 33.8025 -83.9614 59° Northeast 424 488 21,300 1,800 Climbing Atlanta Center
01:44PM 33.8672 -83.8336 58° Northeast 441 507 22,800 1,440 Climbing Atlanta Center
01:45PM 33.9253 -83.7208 53° Northeast 449 517 24,200 1,080 Climbing Atlanta Center
01:46PM 34.0083 -83.5878 52° Northeast 449 517 25,000 360 Climbing Atlanta Center
01:47PM 34.0933 -83.4544 53° Northeast 449 517 25,000  Level Atlanta Center
01:48PM 34.1700 -83.3333 53° Northeast 449 517 25,000 300 Level Atlanta Center
01:49PM 34.2444 -83.2144 54° Northeast 449 517 25,600 1,080 Climbing Atlanta Center
01:50PM 34.3186 -83.0906 52° Northeast 449 517 27,200 1,620 Climbing Atlanta Center
01:51PM 34.3928 -82.9739 52° Northeast 444 511 28,900 1,560 Climbing Atlanta Center
01:52PM 34.4669 -82.8572 55° Northeast 433 498 30,400 1,200 Climbing Atlanta Center
01:53PM 34.5367 -82.7375 54° Northeast 433 498 31,400 960 Climbing Atlanta Center
01:54PM 34.6064 -82.6206 53° Northeast 433 498 32,400 780 Climbing Atlanta Center
01:55PM 34.6800 -82.5031 54° Northeast 433 498 33,000 180 Climbing Atlanta Center
01:57PM 34.8228 -82.2675 53° Northeast 433 498 33,000  Level Atlanta Center
01:58PM 34.8961 -82.1469 52° Northeast 433 498 33,000  Level Atlanta Center
01:59PM 34.9694 -82.0314 53° Northeast 433 498 33,000  Level Atlanta Center
02:00PM 35.0203 -81.9489 57° Northeast 433 498 33,000  Level Atlanta Center
02:03PM 35.2339 -81.5469 58° Northeast 444 511 33,000  Level Atlanta Center
02:04PM 35.2981 -81.4228 58° Northeast 444 511 33,000  Level Atlanta Center
02:05PM 35.3622 -81.2961 58° Northeast 444 511 33,000  Level Atlanta Center
02:06PM 35.4261 -81.1689 56° Northeast 438 504 33,000  Level Atlanta Center
02:07PM 35.4939 -81.0442 57° Northeast 438 504 33,000  Level Atlanta Center
02:08PM 35.5597 -80.9192 57° Northeast 438 504 33,000  Level Atlanta Center
02:09PM 35.6253 -80.7942 57° Northeast 438 504 33,000  Level Atlanta Center
02:10PM 35.6908 -80.6686 57° Northeast 438 504 33,000  Level Atlanta Center
02:11PM 35.7561 -80.5433 58° Northeast 438 504 33,000  Level Atlanta Center
02:12PM 35.8192 -80.4200 58° Northeast 438 504 33,000  Level Atlanta Center
02:13PM 35.8842 -80.2892 58° Northeast 433 498 33,000  Level Atlanta Center
02:14PM 35.9531 -80.1525 56° Northeast 433 498 33,000  Level Atlanta Center
02:15PM 36.0553 -79.9622 55° Northeast 447 514 33,000  Level Washington Center
02:16PM 36.1178 -79.8528 55° Northeast 447 514 33,000  Level Washington Center
02:17PM 36.1956 -79.7128 55° Northeast 442 509 33,000  Level Washington Center
02:18PM 36.2581 -79.6000 55° Northeast 447 514 33,000  Level Washington Center
02:19PM 36.3356 -79.4622 55° Northeast 447 514 33,000  Level Washington Center
02:20PM 36.4064 -79.3342 56° Northeast 447 514 33,000  Level Washington Center
02:21PM 36.4683 -79.2208 53° Northeast 447 514 33,000  Level Washington Center
02:22PM 36.5517 -79.0825 55° Northeast 447 514 33,000  Level Washington Center
02:23PM 36.6219 -78.9589 58° Northeast 441 507 33,000  Level Washington Center
02:24PM 36.6903 -78.8244 56° Northeast 441 507 33,000  Level Washington Center
02:25PM 36.7583 -78.6978 55° Northeast 441 507 33,000  Level Washington Center
02:26PM 36.8283 -78.5733 46° Northeast 441 507 33,000  Level Washington Center
02:27PM 36.9017 -78.4775 40° Northeast 433 498 33,000  Level Washington Center
02:28PM 36.9978 -78.3769 40° Northeast 428 493 33,000  Level Washington Center
02:29PM 37.0897 -78.2814 39° Northeast 428 493 33,000  Level Washington Center
02:30PM 37.1836 -78.1858 40° Northeast 433 498 33,000 -360 Level Washington Center
02:31PM 37.2775 -78.0872 38° Northeast 433 498 32,300 -1,200 Descending Washington Center
02:32PM 37.3714 -77.9933 40° Northeast 433 498 30,700 -1,500 Descending Washington Center
02:33PM 37.4672 -77.8919 38° Northeast 440 506 29,300 -900 Descending Washington Center
02:34PM 37.5669 -77.7925 36° Northeast 440 506 29,000 -180 Descending Washington Center
02:35PM 37.6689 -77.6986 35° Northeast 445 512 29,000  Level Washington Center
02:36PM 37.7683 -77.6094 36° Northeast 445 512 29,000  Level Washington Center
02:37PM 37.8700 -77.5172 36° Northeast 445 512 29,000  Level Washington Center
02:38PM 37.9736 -77.4225 35° Northeast 445 512 29,000 -300 Level Washington Center
02:39PM 38.0814 -77.3250 37° Northeast 445 512 28,400 -720 Descending Washington Center
02:40PM 38.1850 -77.2269 35° Northeast 445 512 27,700 -720 Descending Washington Center
02:41PM 38.2778 -77.1444 35° Northeast 450 518 27,000 -780 Descending Washington Center
02:42PM 38.3917 -77.0433 37° Northeast 458 527 26,200 -720 Descending Washington Center
02:43PM 38.4803 -76.9575 36° Northeast 458 527 25,600 -720 Descending Washington Center
02:44PM 38.5750 -76.8689 35° Northeast 447 514 24,900 -720 Descending Washington Center
02:45PM 38.6739 -76.7803 62° Northeast 435 501 24,200 1,980 Descending Washington Center
02:46PM 38.7294 -76.6481 76° East 407 468 29,000 -1,740 Climbing Washington Center
02:47PM 38.7597 -76.4969 75° East 412 474 20,800 -5,100 Descending Washington Center
02:48PM 38.7900 -76.3533 75° East 412 474 19,000 -1,860 Descending Washington Center
02:49PM 38.8200 -76.2044 76° East 417 480 17,200 -1,800 Descending Washington Center
02:50PM 38.8478 -76.0608 75° East 417 480 15,400 -1,200 Descending Washington Center
02:51PM 38.8775 -75.9222 62° Northeast 406 467 14,900 -360 Descending Washington Center
02:52PM 38.9256 -75.8078 36° Northeast 391 450 14,700 -600 Descending Washington Center
02:53PM 39.0111 -75.7278 25° Northeast 359 413 13,800 -900 Descending Washington Center
02:54PM 39.1008 -75.6744 North 354 407 12,900 -900 Descending Washington Center
02:55PM 39.1817 -75.6633 North 345 397 12,300 -840 Descending FAA TRACON SMA TRACON (SMA)
02:56PM 39.2742 -75.6517 North 334 384 11,500 -780 Descending FAA TRACON SMA TRACON (SMA)
02:56PM 39.3303 -75.6444 North 328 377 11,000 -1,020 Descending FAA TRACON SMA TRACON (SMA)
02:57PM 39.3875 -75.6383 10° North 276 318 10,200 -1,080 Descending FAA TRACON SMA TRACON (SMA)
02:58PM 39.4369 -75.6275 54° Northeast 265 305 9,600 -1,200 Descending FAA TRACON SMA TRACON (SMA)
02:58PM 39.4653 -75.5778 53° Northeast 295 339 8,600 -1,440 Descending FAA TRACON SMA TRACON (SMA)
02:59PM 39.4969 -75.5233 43° Northeast 282 325 7,700 -1,020 Descending FAA TRACON SMA TRACON (SMA)
03:00PM 39.5358 -75.4767 34° Northeast 271 312 7,300 -780 Descending FAA TRACON SMA TRACON (SMA)
03:01PM 39.5956 -75.4253 North 256 295 6,400 -720 Descending FAA TRACON SMA TRACON (SMA)
03:01PM 39.6397 -75.4164 327° Northwest 272 313 6,100 -300 Descending FAA TRACON SMA TRACON (SMA)
03:02PM 39.6786 -75.4489 272° West 245 282 6,000  Descending FAA TRACON SMA TRACON (SMA)
03:03PM 39.6803 -75.5028 255° West 214 246 6,100 60 Climbing FAA TRACON SMA TRACON (SMA)
03:03PM 39.6714 -75.5469 255° West 206 237 6,100  Level FAA TRACON SMA TRACON (SMA)
03:04PM 39.6611 -75.5958 255° West 203 234 6,100  Level FAA TRACON SMA TRACON (SMA)
03:05PM 39.6511 -75.6447 255° West 204 235 6,100  Level FAA TRACON SMA TRACON (SMA)
03:05PM 39.6422 -75.6883 260° West 203 234 6,100 -120 Level FAA TRACON SMA TRACON (SMA)
03:06PM 39.6356 -75.7378 260° West 203 234 6,000 -180 Descending FAA TRACON SMA TRACON (SMA)